createdAt,value
2018-09-19T00:02:11.522Z,93.07
2018-09-19T00:04:40.037Z,90.69
2018-09-19T00:07:08.490Z,90.73
2018-09-19T00:09:36.976Z,90.70
2018-09-19T00:12:05.474Z,91.12
2018-09-19T00:14:34.114Z,93.26
2018-09-19T00:17:03.102Z,94.09
2018-09-19T00:19:31.737Z,96.01
2018-09-19T00:22:00.347Z,97.96
2018-09-19T00:24:28.888Z,99.70
2018-09-19T00:26:57.364Z,100.00
2018-09-19T00:29:25.859Z,100.00
2018-09-19T00:31:54.326Z,100.00
2018-09-19T00:34:22.835Z,100.00
2018-09-19T00:36:52.156Z,99.78
2018-09-19T00:39:20.682Z,100.00
2018-09-19T00:41:49.197Z,100.00
2018-09-19T00:44:17.645Z,100.00
2018-09-19T00:46:46.161Z,100.00
2018-09-19T00:49:14.636Z,100.00
2018-09-19T00:51:43.155Z,100.00
2018-09-19T00:54:11.605Z,100.00
2018-09-19T00:56:40.034Z,100.00
2018-09-19T00:59:08.555Z,100.00
2018-09-19T01:01:37.057Z,98.07
2018-09-19T01:04:05.506Z,90.72
2018-09-19T01:06:34.129Z,92.72
2018-09-19T01:09:02.848Z,91.10
2018-09-19T01:11:31.419Z,92.94
2018-09-19T01:13:59.997Z,93.68
2018-09-19T01:16:28.440Z,98.86
2018-09-19T01:18:56.994Z,100.00
2018-09-19T01:21:25.546Z,100.00
2018-09-19T01:23:53.973Z,100.00
2018-09-19T01:26:22.506Z,100.00
2018-09-19T01:28:50.928Z,100.00
2018-09-19T01:31:19.477Z,100.00
2018-09-19T01:33:47.905Z,100.00
2018-09-19T01:36:16.400Z,100.00
2018-09-19T01:38:45.141Z,100.00
2018-09-19T01:41:13.669Z,100.00
2018-09-19T01:43:42.305Z,100.00
2018-09-19T01:46:10.833Z,100.00
2018-09-19T01:48:39.249Z,100.00
2018-09-19T01:51:07.727Z,100.00
2018-09-19T01:53:36.157Z,100.00
2018-09-19T01:56:04.762Z,100.00
2018-09-19T01:58:33.143Z,100.00
2018-09-19T02:01:01.811Z,100.00
2018-09-19T02:03:30.456Z,100.00
2018-09-19T02:05:58.865Z,100.00
2018-09-19T02:08:27.474Z,100.00
2018-09-19T02:10:55.949Z,100.00
2018-09-19T02:13:24.451Z,100.00
2018-09-19T02:15:52.918Z,100.00
2018-09-19T02:18:21.416Z,100.00
2018-09-19T02:20:49.843Z,100.00
2018-09-19T02:23:18.405Z,100.00
2018-09-19T02:25:46.925Z,100.00
2018-09-19T02:28:15.490Z,100.00
2018-09-19T02:30:43.885Z,100.00
2018-09-19T02:33:12.383Z,100.00
2018-09-19T02:35:40.842Z,100.00
2018-09-19T02:38:09.349Z,100.00
2018-09-19T02:40:37.890Z,100.00
2018-09-19T02:43:06.489Z,100.00
2018-09-19T02:45:35.532Z,100.00
2018-09-19T02:48:04.263Z,100.00
2018-09-19T02:50:32.915Z,100.00
2018-09-19T02:53:01.603Z,100.00
2018-09-19T02:55:30.079Z,100.00
2018-09-19T02:57:58.526Z,100.00
2018-09-19T03:00:27.034Z,100.00
2018-09-19T03:02:55.493Z,100.00
2018-09-19T03:05:23.939Z,100.00
2018-09-19T03:07:52.462Z,100.00
2018-09-19T03:10:20.921Z,100.00
2018-09-19T03:12:49.410Z,100.00
2018-09-19T03:15:17.869Z,100.00
2018-09-19T03:17:46.419Z,100.00
2018-09-19T03:20:14.838Z,100.00
2018-09-19T03:22:43.352Z,100.00
2018-09-19T03:25:11.791Z,100.00
2018-09-19T03:27:40.288Z,100.00
2018-09-19T03:30:08.790Z,100.00
2018-09-19T03:32:37.333Z,100.00
2018-09-19T03:35:05.778Z,100.00
2018-09-19T03:37:34.193Z,100.00
2018-09-19T03:40:03.005Z,100.00
2018-09-19T03:42:31.567Z,100.00
2018-09-19T03:45:00.086Z,100.00
2018-09-19T03:47:28.618Z,100.00
2018-09-19T03:49:57.169Z,100.00
2018-09-19T03:52:25.672Z,100.00
2018-09-19T03:54:54.111Z,100.00
2018-09-19T03:57:22.697Z,100.00
2018-09-19T03:59:51.177Z,100.00
2018-09-19T04:02:19.661Z,100.00
2018-09-19T04:04:48.282Z,100.00
2018-09-19T04:07:16.857Z,100.00
2018-09-19T04:09:45.526Z,100.00
2018-09-19T04:12:14.107Z,100.00
2018-09-19T04:14:42.589Z,100.00
2018-09-19T04:17:11.095Z,100.00
2018-09-19T04:19:39.689Z,100.00
2018-09-19T04:22:08.224Z,100.00
2018-09-19T04:24:37.664Z,100.00
2018-09-19T04:27:06.238Z,100.00
2018-09-19T04:29:34.748Z,100.00
2018-09-19T04:32:03.784Z,100.00
2018-09-19T04:34:32.426Z,100.00
2018-09-19T04:37:01.130Z,100.00
2018-09-19T04:39:29.621Z,100.00
2018-09-19T04:41:58.105Z,100.00
2018-09-19T04:44:26.691Z,100.00
2018-09-19T04:46:56.118Z,100.00
2018-09-19T04:49:24.721Z,100.00
2018-09-19T04:51:53.264Z,100.00
2018-09-19T04:54:21.751Z,100.00
2018-09-19T04:56:50.293Z,100.00
2018-09-19T04:59:18.913Z,100.00
2018-09-19T05:01:47.418Z,100.00
2018-09-19T05:04:15.921Z,100.00
2018-09-19T05:06:44.373Z,100.00
2018-09-19T05:09:12.858Z,100.00
2018-09-19T05:11:41.334Z,100.00
2018-09-19T05:14:09.789Z,100.00
2018-09-19T05:16:38.290Z,100.00
2018-09-19T05:19:06.777Z,100.00
2018-09-19T05:21:35.293Z,100.00
2018-09-19T05:24:04.214Z,100.00
2018-09-19T05:26:32.892Z,100.00
2018-09-19T05:29:01.713Z,100.00
2018-09-19T05:31:30.306Z,100.00
2018-09-19T05:33:58.785Z,100.00
2018-09-19T05:36:27.281Z,100.00
2018-09-19T05:38:55.720Z,100.00
2018-09-19T05:41:24.490Z,100.00
2018-09-19T05:43:52.902Z,100.00
2018-09-19T05:46:21.471Z,100.00
2018-09-19T05:48:50.122Z,100.00
2018-09-19T05:51:18.652Z,100.00
2018-09-19T05:53:47.181Z,100.00
2018-09-19T05:56:15.660Z,100.00
2018-09-19T05:58:44.102Z,100.00
2018-09-19T06:01:12.618Z,100.00
2018-09-19T06:03:41.091Z,100.00
2018-09-19T06:06:09.557Z,100.00
2018-09-19T06:08:38.046Z,100.00
2018-09-19T06:11:06.580Z,100.00
2018-09-19T06:13:35.036Z,100.00
2018-09-19T06:16:03.719Z,100.00
2018-09-19T06:18:32.523Z,100.00
2018-09-19T06:21:01.100Z,100.00
2018-09-19T06:23:29.657Z,100.00
2018-09-19T06:25:58.125Z,100.00
2018-09-19T06:28:26.610Z,100.00
2018-09-19T06:30:55.438Z,100.00
2018-09-19T06:33:24.014Z,100.00
2018-09-19T06:35:52.458Z,100.00
2018-09-19T06:38:21.010Z,100.00
2018-09-19T06:40:49.615Z,100.00
2018-09-19T06:43:18.041Z,100.00
2018-09-19T06:45:46.553Z,100.00
2018-09-19T06:48:14.981Z,100.00
2018-09-19T06:50:43.536Z,100.00
2018-09-19T06:53:12.056Z,98.33
2018-09-19T06:55:40.632Z,97.92
2018-09-19T06:58:09.198Z,97.29
2018-09-19T07:00:37.618Z,95.02
2018-09-19T07:03:06.104Z,94.12
2018-09-19T07:05:34.618Z,97.10
2018-09-19T07:08:03.629Z,95.72
2018-09-19T07:10:32.343Z,97.00
2018-09-19T07:13:00.886Z,95.87
2018-09-19T07:15:29.393Z,94.87
2018-09-19T07:17:57.872Z,94.72
2018-09-19T07:20:26.562Z,95.25
2018-09-19T07:22:55.055Z,93.96
2018-09-19T07:25:23.542Z,93.40
2018-09-19T07:27:52.038Z,92.51
2018-09-19T07:30:20.568Z,92.56
2018-09-19T07:32:49.383Z,92.04
2018-09-19T07:35:17.915Z,88.82
2018-09-19T07:37:46.333Z,87.08
2018-09-19T07:40:14.927Z,87.31
2018-09-19T07:42:43.400Z,87.14
2018-09-19T07:45:11.941Z,86.32
2018-09-19T07:47:40.375Z,86.18
2018-09-19T07:50:09.524Z,84.20
2018-09-19T07:52:38.106Z,82.52
2018-09-19T07:55:07.063Z,83.54
2018-09-19T07:57:35.954Z,81.76
2018-09-19T08:00:04.972Z,81.04
2018-09-19T08:02:33.521Z,80.74
2018-09-19T08:05:02.225Z,79.92
2018-09-19T08:07:30.741Z,81.64
2018-09-19T08:09:59.330Z,79.42
2018-09-19T08:12:27.847Z,79.44
2018-09-19T08:14:56.370Z,79.63
2018-09-19T08:17:24.871Z,78.90
2018-09-19T08:19:53.354Z,77.24
2018-09-19T08:22:21.870Z,76.33
2018-09-19T08:24:50.408Z,77.70
2018-09-19T08:27:18.983Z,76.37
2018-09-19T08:29:47.579Z,76.22
2018-09-19T08:32:15.992Z,76.58
2018-09-19T08:34:44.513Z,75.88
2018-09-19T08:37:13.227Z,74.65
2018-09-19T08:39:41.785Z,73.78
2018-09-19T08:42:10.249Z,74.64
2018-09-19T08:44:38.861Z,73.80
2018-09-19T08:47:07.304Z,73.34
2018-09-19T08:49:35.832Z,73.04
2018-09-19T08:52:04.288Z,73.08
2018-09-19T08:54:32.776Z,71.49
2018-09-19T08:57:01.408Z,69.76
2018-09-19T08:59:29.875Z,69.93
2018-09-19T09:01:58.308Z,70.20
2018-09-19T09:04:26.781Z,69.92
2018-09-19T09:06:55.218Z,68.98
2018-09-19T09:09:23.706Z,67.57
2018-09-19T09:11:52.136Z,67.15
2018-09-19T09:14:20.605Z,66.81
2018-09-19T09:16:49.106Z,66.40
2018-09-19T09:19:17.563Z,68.05
2018-09-19T09:21:46.101Z,66.62
2018-09-19T09:24:14.762Z,64.64
2018-09-19T09:26:43.282Z,62.51
2018-09-19T09:29:11.802Z,62.07
2018-09-19T09:31:40.282Z,62.33
2018-09-19T09:34:08.899Z,59.42
2018-09-19T09:36:37.442Z,58.89
2018-09-19T09:39:06.713Z,55.06
2018-09-19T09:41:35.254Z,53.77
2018-09-19T09:44:03.897Z,52.70
2018-09-19T09:46:32.457Z,51.53
2018-09-19T09:49:01.011Z,51.03
2018-09-19T09:51:29.481Z,49.61
2018-09-19T09:53:58.161Z,47.73
2018-09-19T09:56:26.650Z,47.10
2018-09-19T09:58:55.104Z,43.53
2018-09-19T10:01:23.547Z,43.03
2018-09-19T10:03:52.027Z,40.89
2018-09-19T10:06:20.528Z,42.15
2018-09-19T10:08:48.906Z,41.77
2018-09-19T10:11:17.434Z,39.39
2018-09-19T10:13:46.087Z,38.18
2018-09-19T10:16:14.530Z,38.76
2018-09-19T10:18:43.147Z,37.74
2018-09-19T10:21:11.742Z,38.23
2018-09-19T10:23:40.288Z,37.27
2018-09-19T10:26:08.722Z,38.42
2018-09-19T10:28:37.213Z,36.87
2018-09-19T10:31:05.688Z,38.08
2018-09-19T10:33:34.188Z,37.63
2018-09-19T10:36:02.960Z,36.38
2018-09-19T10:38:32.003Z,35.29
2018-09-19T10:41:00.692Z,33.59
2018-09-19T10:43:29.252Z,35.52
2018-09-19T10:45:57.697Z,34.63
2018-09-19T10:48:26.201Z,34.42
2018-09-19T10:50:54.678Z,31.73
2018-09-19T10:53:23.175Z,33.12
2018-09-19T10:55:51.721Z,32.89
2018-09-19T10:58:20.220Z,31.32
2018-09-19T11:00:48.695Z,32.20
2018-09-19T11:03:17.185Z,32.62
2018-09-19T11:05:45.655Z,31.90
2018-09-19T11:08:14.146Z,31.00
2018-09-19T11:10:42.609Z,30.88
2018-09-19T11:13:11.138Z,29.03
2018-09-19T11:15:39.605Z,27.54
2018-09-19T11:18:08.226Z,28.70
2018-09-19T11:20:36.798Z,28.16
2018-09-19T11:23:05.278Z,26.04
2018-09-19T11:25:33.934Z,28.25
2018-09-19T11:28:02.457Z,26.13
2018-09-19T11:30:31.077Z,24.57
2018-09-19T11:32:59.557Z,26.13
2018-09-19T11:35:28.062Z,27.47
2018-09-19T11:37:56.696Z,24.13
2018-09-19T11:40:25.265Z,23.44
2018-09-19T11:42:53.816Z,23.31
2018-09-19T11:45:22.442Z,22.67
2018-09-19T11:47:51.019Z,21.24
2018-09-19T11:50:19.502Z,21.96
2018-09-19T11:52:47.957Z,22.63
2018-09-19T11:55:16.424Z,21.60
2018-09-19T11:57:44.890Z,21.09
2018-09-19T12:00:13.398Z,20.88
2018-09-19T12:02:41.848Z,20.08
2018-09-19T12:05:10.349Z,19.95
2018-09-19T12:07:38.829Z,20.56
2018-09-19T12:10:07.355Z,20.55
2018-09-19T12:12:35.783Z,20.38
2018-09-19T12:15:04.610Z,21.00
2018-09-19T12:17:33.312Z,20.87
2018-09-19T12:20:02.097Z,19.92
2018-09-19T12:22:30.629Z,20.17
2018-09-19T12:24:59.133Z,20.44
2018-09-19T12:27:27.598Z,19.63
2018-09-19T12:29:56.086Z,19.23
2018-09-19T12:32:24.556Z,19.94
2018-09-19T12:34:52.981Z,20.50
2018-09-19T12:37:22.457Z,18.42
2018-09-19T12:39:51.023Z,19.49
2018-09-19T12:42:19.513Z,19.73
2018-09-19T12:44:48.246Z,18.84
2018-09-19T12:47:17.700Z,19.17
2018-09-19T12:49:46.210Z,20.12
2018-09-19T12:52:14.660Z,18.38
2018-09-19T12:54:43.225Z,19.93
2018-09-19T12:57:11.779Z,19.29
2018-09-19T12:59:40.277Z,18.25
2018-09-19T13:02:08.788Z,17.77
2018-09-19T13:04:37.277Z,16.14
2018-09-19T13:07:05.810Z,16.12
2018-09-19T13:09:34.266Z,15.73
2018-09-19T13:12:03.154Z,15.44
2018-09-19T13:14:31.805Z,15.16
2018-09-19T13:17:00.386Z,14.70
2018-09-19T13:19:28.998Z,14.67
2018-09-19T13:21:57.501Z,15.55
2018-09-19T13:24:25.946Z,15.51
2018-09-19T13:26:54.449Z,15.67
2018-09-19T13:29:22.947Z,15.28
2018-09-19T13:31:51.790Z,14.87
2018-09-19T13:34:20.334Z,15.24
2018-09-19T13:36:48.805Z,15.51
2018-09-19T13:39:17.246Z,16.54
2018-09-19T13:41:45.750Z,13.29
2018-09-19T13:44:14.222Z,13.26
2018-09-19T13:46:42.732Z,13.88
2018-09-19T13:49:25.490Z,13.37
2018-09-19T13:51:53.919Z,13.98
2018-09-19T13:54:22.420Z,13.09
2018-09-19T13:56:50.882Z,12.68
2018-09-19T13:59:19.363Z,13.51
2018-09-19T14:01:47.866Z,14.81
2018-09-19T14:04:17.071Z,13.53
2018-09-19T14:06:45.513Z,13.14
2018-09-19T14:09:14.114Z,13.88
2018-09-19T14:11:42.583Z,14.36
2018-09-19T14:14:11.134Z,13.70
2018-09-19T14:16:39.594Z,12.95
2018-09-19T14:19:08.578Z,13.27
2018-09-19T14:21:37.134Z,14.21
2018-09-19T14:24:05.649Z,11.88
2018-09-19T14:26:34.222Z,12.63
2018-09-19T14:29:02.782Z,11.97
2018-09-19T14:31:31.329Z,11.69
2018-09-19T14:33:59.814Z,13.19
2018-09-19T14:36:28.406Z,11.98
2018-09-19T14:38:56.838Z,11.97
2018-09-19T14:41:25.377Z,11.71
2018-09-19T14:43:53.939Z,12.19
2018-09-19T14:46:22.506Z,12.12
2018-09-19T14:48:51.054Z,12.85
2018-09-19T14:51:19.598Z,11.16
2018-09-19T14:53:48.112Z,12.49
2018-09-19T14:56:16.657Z,12.28
2018-09-19T14:58:45.237Z,12.29
2018-09-19T15:01:13.818Z,13.02
2018-09-19T15:03:42.360Z,13.25
2018-09-19T15:06:10.820Z,12.72
2018-09-19T15:08:39.558Z,11.71
2018-09-19T15:11:08.078Z,12.05
2018-09-19T15:13:36.750Z,10.94
2018-09-19T15:16:05.235Z,10.75
2018-09-19T15:18:33.975Z,11.62
2018-09-19T15:21:03.003Z,11.33
2018-09-19T15:23:31.663Z,11.95
2018-09-19T15:26:00.234Z,12.26
2018-09-19T15:28:28.828Z,14.74
2018-09-19T15:30:57.554Z,14.09
2018-09-19T15:33:26.046Z,14.96
2018-09-19T15:35:54.770Z,13.92
2018-09-19T15:38:23.260Z,13.96
2018-09-19T15:40:51.928Z,13.69
2018-09-19T15:43:20.393Z,13.83
2018-09-19T15:45:48.993Z,13.67
2018-09-19T15:48:17.473Z,13.85
2018-09-19T15:50:46.122Z,13.75
2018-09-19T15:53:14.631Z,13.91
2018-09-19T15:55:43.162Z,16.20
2018-09-19T15:58:11.866Z,17.89
2018-09-19T16:00:40.413Z,16.62
2018-09-19T16:03:09.077Z,16.47
2018-09-19T16:05:37.578Z,16.48
2018-09-19T16:08:06.266Z,18.10
2018-09-19T16:10:34.699Z,17.89
2018-09-19T16:13:03.559Z,19.58
2018-09-19T16:15:32.075Z,19.14
2018-09-19T16:18:00.777Z,19.73
2018-09-19T16:20:29.229Z,18.98
2018-09-19T16:22:57.715Z,18.88
2018-09-19T16:25:26.302Z,19.45
2018-09-19T16:27:54.847Z,19.58
2018-09-19T16:30:23.433Z,20.10
2018-09-19T16:32:51.984Z,19.83
2018-09-19T16:35:20.498Z,21.02
2018-09-19T16:37:49.033Z,21.08
2018-09-19T16:40:17.542Z,21.59
2018-09-19T16:42:46.029Z,22.14
2018-09-19T16:45:14.479Z,23.02
2018-09-19T16:47:42.980Z,23.47
2018-09-19T16:50:11.488Z,24.71
2018-09-19T16:52:40.076Z,26.99
2018-09-19T16:55:08.656Z,29.83
2018-09-19T16:57:37.214Z,34.08
2018-09-19T17:00:06.817Z,36.04
2018-09-19T17:02:35.342Z,38.06
2018-09-19T17:05:04.243Z,40.30
2018-09-19T17:07:32.963Z,42.25
2018-09-19T17:10:01.538Z,44.04
2018-09-19T17:12:30.295Z,44.79
2018-09-19T17:14:58.886Z,46.91
2018-09-19T17:17:27.437Z,47.76
2018-09-19T17:19:55.881Z,48.69
2018-09-19T17:22:24.362Z,49.99
2018-09-19T17:24:52.861Z,50.57
2018-09-19T17:27:21.310Z,51.51
2018-09-19T17:29:49.802Z,52.85
2018-09-19T17:32:18.424Z,53.49
2018-09-19T17:34:46.939Z,54.92
2018-09-19T17:37:15.603Z,54.53
2018-09-19T17:39:44.058Z,55.80
2018-09-19T17:42:12.510Z,57.93
2018-09-19T17:44:41.014Z,57.77
2018-09-19T17:47:09.530Z,58.18
2018-09-19T17:49:38.063Z,58.60
2018-09-19T17:52:06.538Z,58.91
2018-09-19T17:54:34.978Z,59.90
2018-09-19T17:57:03.719Z,60.27
2018-09-19T17:59:33.544Z,61.21
2018-09-19T18:02:02.432Z,61.75
2018-09-19T18:04:31.081Z,62.18
2018-09-19T18:06:59.575Z,62.72
2018-09-19T18:09:28.067Z,63.30
2018-09-19T18:11:56.574Z,64.15
2018-09-19T18:14:25.018Z,64.36
2018-09-19T18:16:53.604Z,64.93
2018-09-19T18:19:22.083Z,65.30
2018-09-19T18:21:50.823Z,65.36
2018-09-19T18:24:19.274Z,65.63
2018-09-19T18:26:47.830Z,67.07
2018-09-19T18:29:16.330Z,67.06
2018-09-19T18:31:44.817Z,68.37
2018-09-19T18:34:13.354Z,68.80
2018-09-19T18:36:41.928Z,69.11
2018-09-19T18:39:10.472Z,70.25
2018-09-19T18:41:38.962Z,69.94
2018-09-19T18:44:07.414Z,69.24
2018-09-19T18:46:35.974Z,69.17
2018-09-19T18:49:04.645Z,70.10
2018-09-19T18:51:33.310Z,69.71
2018-09-19T18:54:01.780Z,71.14
2018-09-19T18:56:30.266Z,71.82
2018-09-19T18:58:58.721Z,71.98
2018-09-19T19:01:27.332Z,72.55
2018-09-19T19:03:55.833Z,73.85
2018-09-19T19:06:24.326Z,74.53
2018-09-19T19:08:52.982Z,75.80
2018-09-19T19:11:21.605Z,76.47
2018-09-19T19:13:50.115Z,76.94
2018-09-19T19:16:18.898Z,77.63
2018-09-19T19:18:47.408Z,78.94
2018-09-19T19:21:15.905Z,79.18
2018-09-19T19:23:44.478Z,79.25
2018-09-19T19:26:12.945Z,79.15
2018-09-19T19:28:41.466Z,79.17
2018-09-19T19:31:09.953Z,80.11
2018-09-19T19:33:38.382Z,80.20
2018-09-19T19:36:07.138Z,81.42
2018-09-19T19:41:16.219Z,82.41
2018-09-19T19:43:44.701Z,85.36
2018-09-19T19:46:13.237Z,85.42
2018-09-19T19:48:41.774Z,84.89
2018-09-19T19:51:10.276Z,85.92
2018-09-19T19:53:38.725Z,86.34
2018-09-19T19:56:07.417Z,87.02
2018-09-19T19:58:35.918Z,87.73
2018-09-19T20:01:05.533Z,88.67
2018-09-19T20:03:34.110Z,88.14
2018-09-19T20:06:02.879Z,88.82
2018-09-19T20:08:31.338Z,89.30
2018-09-19T20:10:59.846Z,89.82
2018-09-19T20:13:28.341Z,90.35
2018-09-19T20:15:56.782Z,90.06
2018-09-19T20:18:25.356Z,90.34
2018-09-19T20:20:53.821Z,90.65
2018-09-19T20:23:22.425Z,91.36
2018-09-19T20:25:50.958Z,91.88
2018-09-19T20:28:19.486Z,91.52
2018-09-19T20:30:48.198Z,91.60
2018-09-19T20:33:16.728Z,92.02
2018-09-19T20:35:45.269Z,92.07
2018-09-19T20:38:13.787Z,92.97
2018-09-19T20:40:42.411Z,92.70
2018-09-19T20:43:10.950Z,92.83
2018-09-19T20:45:39.407Z,93.19
2018-09-19T20:48:07.989Z,93.31
2018-09-19T20:50:36.445Z,92.58
2018-09-19T20:53:05.234Z,92.69
2018-09-19T20:55:33.987Z,93.25
2018-09-19T20:58:02.923Z,94.19
2018-09-19T21:00:31.447Z,93.61
2018-09-19T21:03:00.067Z,94.55
2018-09-19T21:05:28.583Z,94.04
2018-09-19T21:07:57.095Z,93.80
2018-09-19T21:10:25.566Z,94.17
2018-09-19T21:12:54.045Z,94.12
2018-09-19T21:15:23.167Z,94.47
2018-09-19T21:17:51.670Z,95.30
2018-09-19T21:20:20.214Z,95.39
2018-09-19T21:22:48.689Z,95.39
2018-09-19T21:25:17.148Z,95.40
2018-09-19T21:27:45.749Z,95.32
2018-09-19T21:30:14.260Z,95.63
2018-09-19T21:32:42.822Z,96.21
2018-09-19T21:35:11.305Z,95.72
2018-09-19T21:37:39.757Z,96.76
2018-09-19T21:40:08.294Z,97.34
2018-09-19T21:42:36.719Z,96.65
2018-09-19T21:45:05.477Z,96.38
2018-09-19T21:47:34.234Z,95.87
2018-09-19T21:50:03.002Z,96.99
2018-09-19T21:52:31.849Z,98.85
2018-09-19T21:55:00.598Z,98.15
2018-09-19T21:57:29.058Z,98.62
2018-09-19T21:59:57.577Z,99.77
2018-09-19T22:02:26.160Z,99.22
2018-09-19T22:04:54.776Z,98.86
2018-09-19T22:07:23.276Z,99.06
2018-09-19T22:09:51.802Z,98.49
2018-09-19T22:12:20.231Z,99.16
2018-09-19T22:14:48.778Z,99.92
2018-09-19T22:17:17.214Z,99.60
2018-09-19T22:19:45.714Z,100.00
2018-09-19T22:22:14.160Z,100.00
2018-09-19T22:24:42.694Z,100.00
2018-09-19T22:27:11.154Z,100.00
2018-09-19T22:29:39.586Z,100.00
2018-09-19T22:32:08.109Z,100.00
2018-09-19T22:34:36.669Z,100.00
2018-09-19T22:37:05.210Z,100.00
2018-09-19T22:39:33.766Z,100.00
2018-09-19T22:42:02.494Z,100.00
2018-09-19T22:44:31.047Z,100.00
2018-09-19T22:46:59.493Z,100.00
2018-09-19T22:49:27.953Z,100.00
2018-09-19T22:51:56.616Z,100.00
2018-09-19T22:54:25.038Z,100.00
2018-09-19T22:56:53.554Z,100.00
2018-09-19T22:59:22.035Z,100.00
2018-09-19T23:01:50.543Z,100.00
2018-09-19T23:04:18.969Z,100.00
2018-09-19T23:06:47.485Z,100.00
2018-09-19T23:09:15.937Z,100.00
2018-09-19T23:11:44.605Z,100.00
2018-09-19T23:14:13.141Z,100.00
2018-09-19T23:16:41.608Z,100.00
2018-09-19T23:19:10.054Z,100.00
2018-09-19T23:21:38.514Z,100.00
2018-09-19T23:24:07.033Z,100.00
2018-09-19T23:26:35.552Z,100.00
2018-09-19T23:29:04.145Z,100.00
2018-09-19T23:31:32.589Z,100.00
2018-09-19T23:34:01.070Z,100.00
2018-09-19T23:36:29.569Z,100.00
2018-09-19T23:38:58.053Z,100.00
2018-09-19T23:41:26.565Z,100.00
2018-09-19T23:43:55.095Z,100.00
2018-09-19T23:46:23.591Z,100.00
2018-09-19T23:48:52.057Z,100.00
2018-09-19T23:51:20.553Z,100.00
2018-09-19T23:53:49.023Z,100.00
2018-09-19T23:56:17.518Z,100.00
2018-09-19T23:58:45.977Z,100.00
